sensor_id;sensor_type;location;lat;lon;timestamp;temperature;humidity
55313;DHT22;46892;45.668;11.756;2022-09-02T00:01:20;19.30;77.40
55313;DHT22;46892;45.668;11.756;2022-09-02T00:03:48;19.20;77.70
55313;DHT22;46892;45.668;11.756;2022-09-02T00:06:15;19.20;77.50
55313;DHT22;46892;45.668;11.756;2022-09-02T00:08:42;19.20;77.50
55313;DHT22;46892;45.668;11.756;2022-09-02T00:11:13;19.10;77.90
55313;DHT22;46892;45.668;11.756;2022-09-02T00:13:39;19.10;77.70
55313;DHT22;46892;45.668;11.756;2022-09-02T00:16:05;19.10;77.90
55313;DHT22;46892;45.668;11.756;2022-09-02T00:18:31;19.20;77.50
55313;DHT22;46892;45.668;11.756;2022-09-02T00:20:57;19.20;78.00
55313;DHT22;46892;45.668;11.756;2022-09-02T00:23:23;19.10;77.50
55313;DHT22;46892;45.668;11.756;2022-09-02T00:25:48;19.10;77.60
55313;DHT22;46892;45.668;11.756;2022-09-02T00:28:15;19.10;77.20
55313;DHT22;46892;45.668;11.756;2022-09-02T00:30:41;19.20;77.10
55313;DHT22;46892;45.668;11.756;2022-09-02T00:33:07;19.30;76.60
55313;DHT22;46892;45.668;11.756;2022-09-02T00:35:33;19.30;76.70
55313;DHT22;46892;45.668;11.756;2022-09-02T00:37:59;19.30;76.00
55313;DHT22;46892;45.668;11.756;2022-09-02T00:40:26;19.30;76.00
55313;DHT22;46892;45.668;11.756;2022-09-02T00:42:53;19.20;77.60
55313;DHT22;46892;45.668;11.756;2022-09-02T00:45:20;19.30;77.20
55313;DHT22;46892;45.668;11.756;2022-09-02T00:47:46;19.20;76.90
55313;DHT22;46892;45.668;11.756;2022-09-02T00:50:18;19.10;76.50
55313;DHT22;46892;45.668;11.756;2022-09-02T00:52:50;19.10;76.20
55313;DHT22;46892;45.668;11.756;2022-09-02T00:55:23;19.20;76.50
55313;DHT22;46892;45.668;11.756;2022-09-02T00:57:57;19.20;76.10
55313;DHT22;46892;45.668;11.756;2022-09-02T01:00:26;19.20;76.50
55313;DHT22;46892;45.668;11.756;2022-09-02T01:02:59;19.30;75.00
55313;DHT22;46892;45.668;11.756;2022-09-02T01:05:28;19.40;75.10
55313;DHT22;46892;45.668;11.756;2022-09-02T01:07:55;19.40;75.50
55313;DHT22;46892;45.668;11.756;2022-09-02T01:10:31;19.40;74.90
55313;DHT22;46892;45.668;11.756;2022-09-02T01:13:01;19.30;74.90
55313;DHT22;46892;45.668;11.756;2022-09-02T01:15:32;19.30;75.30
55313;DHT22;46892;45.668;11.756;2022-09-02T01:18:01;19.20;75.40
55313;DHT22;46892;45.668;11.756;2022-09-02T01:20:26;19.20;75.50
55313;DHT22;46892;45.668;11.756;2022-09-02T01:22:53;19.20;75.70
55313;DHT22;46892;45.668;11.756;2022-09-02T01:25:23;19.20;75.60
55313;DHT22;46892;45.668;11.756;2022-09-02T01:27:49;19.20;75.70
55313;DHT22;46892;45.668;11.756;2022-09-02T01:30:21;19.20;75.90
55313;DHT22;46892;45.668;11.756;2022-09-02T01:32:47;19.10;76.20
55313;DHT22;46892;45.668;11.756;2022-09-02T01:35:13;19.10;76.30
55313;DHT22;46892;45.668;11.756;2022-09-02T01:37:40;19.10;76.40
55313;DHT22;46892;45.668;11.756;2022-09-02T01:40:09;19.10;76.40
55313;DHT22;46892;45.668;11.756;2022-09-02T01:42:36;19.10;76.50
55313;DHT22;46892;45.668;11.756;2022-09-02T01:45:04;19.10;76.40
55313;DHT22;46892;45.668;11.756;2022-09-02T01:47:30;19.00;76.80
55313;DHT22;46892;45.668;11.756;2022-09-02T01:49:56;19.10;77.00
55313;DHT22;46892;45.668;11.756;2022-09-02T01:52:24;19.10;76.50
55313;DHT22;46892;45.668;11.756;2022-09-02T01:54:51;19.20;76.10
55313;DHT22;46892;45.668;11.756;2022-09-02T01:57:17;19.20;76.10
55313;DHT22;46892;45.668;11.756;2022-09-02T01:59:42;19.10;76.40
55313;DHT22;46892;45.668;11.756;2022-09-02T02:02:11;19.10;76.30
55313;DHT22;46892;45.668;11.756;2022-09-02T02:04:37;19.10;76.10
55313;DHT22;46892;45.668;11.756;2022-09-02T02:07:04;19.10;75.90
55313;DHT22;46892;45.668;11.756;2022-09-02T02:09:30;19.00;75.90
55313;DHT22;46892;45.668;11.756;2022-09-02T02:11:56;19.00;75.80
55313;DHT22;46892;45.668;11.756;2022-09-02T02:14:21;19.00;76.40
55313;DHT22;46892;45.668;11.756;2022-09-02T02:16:48;19.00;76.70
55313;DHT22;46892;45.668;11.756;2022-09-02T02:19:14;19.00;76.30
55313;DHT22;46892;45.668;11.756;2022-09-02T02:21:40;19.00;76.50
55313;DHT22;46892;45.668;11.756;2022-09-02T02:24:06;18.90;76.70
55313;DHT22;46892;45.668;11.756;2022-09-02T02:26:33;18.90;76.90
55313;DHT22;46892;45.668;11.756;2022-09-02T02:28:59;19.00;76.90
55313;DHT22;46892;45.668;11.756;2022-09-02T02:31:25;18.90;76.40
55313;DHT22;46892;45.668;11.756;2022-09-02T02:33:51;18.90;76.40
55313;DHT22;46892;45.668;11.756;2022-09-02T02:36:17;18.90;76.40
55313;DHT22;46892;45.668;11.756;2022-09-02T02:38:43;18.80;76.90
55313;DHT22;46892;45.668;11.756;2022-09-02T02:41:11;18.90;76.50
55313;DHT22;46892;45.668;11.756;2022-09-02T02:43:38;18.80;76.70
55313;DHT22;46892;45.668;11.756;2022-09-02T02:46:05;18.70;76.80
55313;DHT22;46892;45.668;11.756;2022-09-02T02:48:32;18.80;76.80
55313;DHT22;46892;45.668;11.756;2022-09-02T02:50:58;18.70;76.90
55313;DHT22;46892;45.668;11.756;2022-09-02T02:53:23;18.70;77.10
55313;DHT22;46892;45.668;11.756;2022-09-02T02:55:49;18.70;77.40
55313;DHT22;46892;45.668;11.756;2022-09-02T02:58:15;18.80;76.90
55313;DHT22;46892;45.668;11.756;2022-09-02T03:00:41;18.80;76.30
55313;DHT22;46892;45.668;11.756;2022-09-02T03:03:08;18.80;76.10
55313;DHT22;46892;45.668;11.756;2022-09-02T03:05:36;18.80;76.40
55313;DHT22;46892;45.668;11.756;2022-09-02T03:08:04;18.70;77.50
55313;DHT22;46892;45.668;11.756;2022-09-02T03:10:30;18.60;77.30
55313;DHT22;46892;45.668;11.756;2022-09-02T03:12:57;18.60;77.50
55313;DHT22;46892;45.668;11.756;2022-09-02T03:15:23;18.50;78.10
55313;DHT22;46892;45.668;11.756;2022-09-02T03:17:49;18.40;78.40
55313;DHT22;46892;45.668;11.756;2022-09-02T03:20:16;18.50;78.30
55313;DHT22;46892;45.668;11.756;2022-09-02T03:22:44;18.30;78.20
55313;DHT22;46892;45.668;11.756;2022-09-02T03:25:11;18.20;78.30
55313;DHT22;46892;45.668;11.756;2022-09-02T03:27:39;18.00;79.00
55313;DHT22;46892;45.668;11.756;2022-09-02T03:30:08;17.90;79.20
55313;DHT22;46892;45.668;11.756;2022-09-02T03:32:35;17.80;79.40
55313;DHT22;46892;45.668;11.756;2022-09-02T03:35:02;17.80;79.40
55313;DHT22;46892;45.668;11.756;2022-09-02T03:37:28;17.80;79.50
55313;DHT22;46892;45.668;11.756;2022-09-02T03:39:53;17.80;79.70
55313;DHT22;46892;45.668;11.756;2022-09-02T03:42:19;17.80;79.90
55313;DHT22;46892;45.668;11.756;2022-09-02T03:44:45;17.80;79.80
55313;DHT22;46892;45.668;11.756;2022-09-02T03:47:10;17.80;79.70
55313;DHT22;46892;45.668;11.756;2022-09-02T03:49:38;17.80;79.70
55313;DHT22;46892;45.668;11.756;2022-09-02T03:52:04;17.80;79.70
55313;DHT22;46892;45.668;11.756;2022-09-02T03:54:30;17.80;79.60
55313;DHT22;46892;45.668;11.756;2022-09-02T03:56:56;17.80;79.80
55313;DHT22;46892;45.668;11.756;2022-09-02T03:59:23;17.80;79.70
55313;DHT22;46892;45.668;11.756;2022-09-02T04:01:49;17.80;79.60
55313;DHT22;46892;45.668;11.756;2022-09-02T04:04:17;17.80;79.70
55313;DHT22;46892;45.668;11.756;2022-09-02T04:06:43;17.80;79.50
55313;DHT22;46892;45.668;11.756;2022-09-02T04:09:09;17.80;79.50
55313;DHT22;46892;45.668;11.756;2022-09-02T04:11:35;17.80;79.20
55313;DHT22;46892;45.668;11.756;2022-09-02T04:14:02;17.80;79.20
55313;DHT22;46892;45.668;11.756;2022-09-02T04:16:27;17.70;79.30
55313;DHT22;46892;45.668;11.756;2022-09-02T04:18:55;17.70;79.60
55313;DHT22;46892;45.668;11.756;2022-09-02T04:21:22;17.80;79.30
55313;DHT22;46892;45.668;11.756;2022-09-02T04:23:48;17.70;79.20
55313;DHT22;46892;45.668;11.756;2022-09-02T04:26:15;17.70;79.20
55313;DHT22;46892;45.668;11.756;2022-09-02T04:28:41;17.80;79.00
55313;DHT22;46892;45.668;11.756;2022-09-02T04:31:11;17.80;79.10
55313;DHT22;46892;45.668;11.756;2022-09-02T04:33:38;17.80;78.90
55313;DHT22;46892;45.668;11.756;2022-09-02T04:36:06;17.80;78.70
55313;DHT22;46892;45.668;11.756;2022-09-02T04:38:32;17.80;78.70
55313;DHT22;46892;45.668;11.756;2022-09-02T04:40:58;17.80;78.80
55313;DHT22;46892;45.668;11.756;2022-09-02T04:43:24;18.00;78.70
55313;DHT22;46892;45.668;11.756;2022-09-02T04:45:50;18.00;78.60
55313;DHT22;46892;45.668;11.756;2022-09-02T04:48:16;18.10;78.60
55313;DHT22;46892;45.668;11.756;2022-09-02T04:50:44;18.20;78.10
55313;DHT22;46892;45.668;11.756;2022-09-02T04:53:10;18.20;77.90
55313;DHT22;46892;45.668;11.756;2022-09-02T04:55:40;18.30;77.30
55313;DHT22;46892;45.668;11.756;2022-09-02T04:58:07;18.20;77.70
55313;DHT22;46892;45.668;11.756;2022-09-02T05:00:33;18.10;78.00
55313;DHT22;46892;45.668;11.756;2022-09-02T05:02:59;18.10;78.10
55313;DHT22;46892;45.668;11.756;2022-09-02T05:05:24;18.10;78.10
55313;DHT22;46892;45.668;11.756;2022-09-02T05:07:50;18.00;78.00
55313;DHT22;46892;45.668;11.756;2022-09-02T05:10:16;18.30;78.40
55313;DHT22;46892;45.668;11.756;2022-09-02T05:12:42;18.30;77.70
55313;DHT22;46892;45.668;11.756;2022-09-02T05:15:09;18.30;77.50
55313;DHT22;46892;45.668;11.756;2022-09-02T05:17:35;18.50;77.40
55313;DHT22;46892;45.668;11.756;2022-09-02T05:20:06;18.50;77.30
55313;DHT22;46892;45.668;11.756;2022-09-02T05:22:35;18.50;77.30
55313;DHT22;46892;45.668;11.756;2022-09-02T05:25:03;18.50;77.20
55313;DHT22;46892;45.668;11.756;2022-09-02T05:27:29;18.60;77.30
55313;DHT22;46892;45.668;11.756;2022-09-02T05:29:56;18.60;76.40
55313;DHT22;46892;45.668;11.756;2022-09-02T05:32:24;18.60;76.60
55313;DHT22;46892;45.668;11.756;2022-09-02T05:34:52;18.70;76.60
55313;DHT22;46892;45.668;11.756;2022-09-02T05:37:18;18.80;76.00
55313;DHT22;46892;45.668;11.756;2022-09-02T05:39:44;19.00;74.90
55313;DHT22;46892;45.668;11.756;2022-09-02T05:42:10;19.00;74.40
55313;DHT22;46892;45.668;11.756;2022-09-02T05:44:36;19.10;74.10
55313;DHT22;46892;45.668;11.756;2022-09-02T05:47:02;19.10;73.40
55313;DHT22;46892;45.668;11.756;2022-09-02T05:49:28;19.20;73.60
55313;DHT22;46892;45.668;11.756;2022-09-02T05:51:56;19.30;72.70
55313;DHT22;46892;45.668;11.756;2022-09-02T05:54:25;19.50;72.60
55313;DHT22;46892;45.668;11.756;2022-09-02T05:56:54;19.70;72.30
55313;DHT22;46892;45.668;11.756;2022-09-02T05:59:21;19.70;72.30
55313;DHT22;46892;45.668;11.756;2022-09-02T06:01:48;20.00;70.60
55313;DHT22;46892;45.668;11.756;2022-09-02T06:04:14;20.20;69.10
55313;DHT22;46892;45.668;11.756;2022-09-02T06:06:40;20.40;69.70
55313;DHT22;46892;45.668;11.756;2022-09-02T06:09:08;20.40;67.60
55313;DHT22;46892;45.668;11.756;2022-09-02T06:11:39;20.40;67.50
55313;DHT22;46892;45.668;11.756;2022-09-02T06:14:11;20.30;68.30
55313;DHT22;46892;45.668;11.756;2022-09-02T06:16:39;20.20;68.50
55313;DHT22;46892;45.668;11.756;2022-09-02T06:19:05;20.30;67.90
55313;DHT22;46892;45.668;11.756;2022-09-02T06:21:31;20.40;67.60
55313;DHT22;46892;45.668;11.756;2022-09-02T06:23:58;20.50;67.60
55313;DHT22;46892;45.668;11.756;2022-09-02T06:26:23;20.70;66.00
55313;DHT22;46892;45.668;11.756;2022-09-02T06:28:49;20.80;65.30
55313;DHT22;46892;45.668;11.756;2022-09-02T06:31:18;21.10;66.80
55313;DHT22;46892;45.668;11.756;2022-09-02T06:33:45;21.20;62.90
55313;DHT22;46892;45.668;11.756;2022-09-02T06:36:15;21.30;61.60
55313;DHT22;46892;45.668;11.756;2022-09-02T06:38:44;21.30;60.00
55313;DHT22;46892;45.668;11.756;2022-09-02T06:41:12;21.20;60.70
55313;DHT22;46892;45.668;11.756;2022-09-02T06:43:38;21.00;62.00
55313;DHT22;46892;45.668;11.756;2022-09-02T06:46:05;21.00;61.40
55313;DHT22;46892;45.668;11.756;2022-09-02T06:48:30;21.00;62.40
55313;DHT22;46892;45.668;11.756;2022-09-02T06:50:56;21.20;62.00
55313;DHT22;46892;45.668;11.756;2022-09-02T06:53:22;21.30;61.20
55313;DHT22;46892;45.668;11.756;2022-09-02T06:55:49;21.50;61.50
55313;DHT22;46892;45.668;11.756;2022-09-02T06:58:15;21.70;61.30
55313;DHT22;46892;45.668;11.756;2022-09-02T07:00:42;21.90;61.20
55313;DHT22;46892;45.668;11.756;2022-09-02T07:03:09;22.00;58.90
55313;DHT22;46892;45.668;11.756;2022-09-02T07:06:06;22.20;56.20
55313;DHT22;46892;45.668;11.756;2022-09-02T07:08:37;22.50;57.90
55313;DHT22;46892;45.668;11.756;2022-09-02T07:11:06;22.60;56.90
55313;DHT22;46892;45.668;11.756;2022-09-02T07:13:33;22.60;58.40
55313;DHT22;46892;45.668;11.756;2022-09-02T07:15:59;22.50;52.80
55313;DHT22;46892;45.668;11.756;2022-09-02T07:18:25;22.40;54.80
55313;DHT22;46892;45.668;11.756;2022-09-02T07:20:51;22.30;53.00
55313;DHT22;46892;45.668;11.756;2022-09-02T07:23:17;22.30;53.70
55313;DHT22;46892;45.668;11.756;2022-09-02T07:25:43;22.50;53.20
55313;DHT22;46892;45.668;11.756;2022-09-02T07:28:10;22.70;53.30
55313;DHT22;46892;45.668;11.756;2022-09-02T07:30:36;22.70;51.10
55313;DHT22;46892;45.668;11.756;2022-09-02T07:33:03;22.60;51.70
55313;DHT22;46892;45.668;11.756;2022-09-02T07:35:29;22.50;53.40
55313;DHT22;46892;45.668;11.756;2022-09-02T07:37:55;22.60;53.00
55313;DHT22;46892;45.668;11.756;2022-09-02T07:40:21;22.50;52.70
55313;DHT22;46892;45.668;11.756;2022-09-02T07:42:47;22.30;53.40
55313;DHT22;46892;45.668;11.756;2022-09-02T07:45:14;22.10;52.70
55313;DHT22;46892;45.668;11.756;2022-09-02T07:47:40;21.90;54.70
55313;DHT22;46892;45.668;11.756;2022-09-02T07:50:06;21.80;56.40
55313;DHT22;46892;45.668;11.756;2022-09-02T07:52:32;21.90;57.20
55313;DHT22;46892;45.668;11.756;2022-09-02T07:54:58;22.20;54.90
55313;DHT22;46892;45.668;11.756;2022-09-02T07:57:23;22.40;55.20
55313;DHT22;46892;45.668;11.756;2022-09-02T07:59:49;22.70;55.10
55313;DHT22;46892;45.668;11.756;2022-09-02T08:02:15;22.80;55.70
55313;DHT22;46892;45.668;11.756;2022-09-02T08:04:43;23.00;53.00
55313;DHT22;46892;45.668;11.756;2022-09-02T08:07:09;23.10;54.50
55313;DHT22;46892;45.668;11.756;2022-09-02T08:09:35;23.20;54.90
55313;DHT22;46892;45.668;11.756;2022-09-02T08:12:01;23.20;54.10
55313;DHT22;46892;45.668;11.756;2022-09-02T08:14:27;23.10;55.00
55313;DHT22;46892;45.668;11.756;2022-09-02T08:16:55;23.20;53.60
55313;DHT22;46892;45.668;11.756;2022-09-02T08:19:23;23.30;52.90
55313;DHT22;46892;45.668;11.756;2022-09-02T08:21:49;23.30;53.70
55313;DHT22;46892;45.668;11.756;2022-09-02T08:24:15;23.30;55.10
55313;DHT22;46892;45.668;11.756;2022-09-02T08:26:41;23.40;55.20
55313;DHT22;46892;45.668;11.756;2022-09-02T08:29:08;23.60;55.30
55313;DHT22;46892;45.668;11.756;2022-09-02T08:31:36;23.70;53.20
55313;DHT22;46892;45.668;11.756;2022-09-02T08:34:02;23.70;52.90
55313;DHT22;46892;45.668;11.756;2022-09-02T08:36:28;23.60;53.00
55313;DHT22;46892;45.668;11.756;2022-09-02T08:38:54;23.30;51.70
55313;DHT22;46892;45.668;11.756;2022-09-02T08:41:24;23.30;54.00
55313;DHT22;46892;45.668;11.756;2022-09-02T08:43:52;23.10;53.00
55313;DHT22;46892;45.668;11.756;2022-09-02T08:46:20;22.90;54.90
55313;DHT22;46892;45.668;11.756;2022-09-02T08:48:58;22.80;55.60
55313;DHT22;46892;45.668;11.756;2022-09-02T08:54:01;22.80;54.00
55313;DHT22;46892;45.668;11.756;2022-09-02T08:56:29;23.00;52.90
55313;DHT22;46892;45.668;11.756;2022-09-02T08:58:56;23.10;51.50
55313;DHT22;46892;45.668;11.756;2022-09-02T09:04:49;23.00;51.30
55313;DHT22;46892;45.668;11.756;2022-09-02T09:07:37;22.90;52.30
55313;DHT22;46892;45.668;11.756;2022-09-02T09:10:21;22.90;53.00
55313;DHT22;46892;45.668;11.756;2022-09-02T09:12:55;23.00;52.40
55313;DHT22;46892;45.668;11.756;2022-09-02T09:18:22;23.30;53.60
55313;DHT22;46892;45.668;11.756;2022-09-02T09:20:52;23.20;51.20
55313;DHT22;46892;45.668;11.756;2022-09-02T09:23:31;23.20;51.30
55313;DHT22;46892;45.668;11.756;2022-09-02T09:26:12;23.20;50.70
55313;DHT22;46892;45.668;11.756;2022-09-02T09:28:43;23.20;50.90
55313;DHT22;46892;45.668;11.756;2022-09-02T09:31:16;23.30;51.10
55313;DHT22;46892;45.668;11.756;2022-09-02T09:34:06;23.40;48.40
55313;DHT22;46892;45.668;11.756;2022-09-02T09:39:27;23.60;50.70
55313;DHT22;46892;45.668;11.756;2022-09-02T09:42:34;23.80;49.80
55313;DHT22;46892;45.668;11.756;2022-09-02T09:44:52;23.90;51.20
55313;DHT22;46892;45.668;11.756;2022-09-02T09:47:24;24.00;49.40
55313;DHT22;46892;45.668;11.756;2022-09-02T09:49:52;24.10;48.90
55313;DHT22;46892;45.668;11.756;2022-09-02T09:52:23;24.10;47.80
55313;DHT22;46892;45.668;11.756;2022-09-02T09:57:40;24.00;51.70
55313;DHT22;46892;45.668;11.756;2022-09-02T10:00:21;24.10;48.40
55313;DHT22;46892;45.668;11.756;2022-09-02T10:02:52;24.30;48.60
55313;DHT22;46892;45.668;11.756;2022-09-02T10:05:28;24.30;47.60
55313;DHT22;46892;45.668;11.756;2022-09-02T10:08:04;24.30;48.90
55313;DHT22;46892;45.668;11.756;2022-09-02T10:10:31;24.30;48.80
55313;DHT22;46892;45.668;11.756;2022-09-02T10:13:00;24.50;51.70
55313;DHT22;46892;45.668;11.756;2022-09-02T10:18:52;24.70;48.10
55313;DHT22;46892;45.668;11.756;2022-09-02T10:26:50;24.60;46.00
55313;DHT22;46892;45.668;11.756;2022-09-02T10:34:58;24.20;48.80
55313;DHT22;46892;45.668;11.756;2022-09-02T10:37:35;24.20;48.50
55313;DHT22;46892;45.668;11.756;2022-09-02T10:40:11;24.10;48.10
55313;DHT22;46892;45.668;11.756;2022-09-02T10:43:01;24.10;48.20
55313;DHT22;46892;45.668;11.756;2022-09-02T10:45:49;24.10;46.20
55313;DHT22;46892;45.668;11.756;2022-09-02T10:51:09;24.00;47.00
55313;DHT22;46892;45.668;11.756;2022-09-02T10:54:02;23.90;47.10
55313;DHT22;46892;45.668;11.756;2022-09-02T10:56:44;24.10;47.00
55313;DHT22;46892;45.668;11.756;2022-09-02T10:59:25;24.10;47.50
55313;DHT22;46892;45.668;11.756;2022-09-02T11:04:38;24.00;48.20
55313;DHT22;46892;45.668;11.756;2022-09-02T11:07:08;24.10;47.60
55313;DHT22;46892;45.668;11.756;2022-09-02T11:09:45;24.00;48.60
55313;DHT22;46892;45.668;11.756;2022-09-02T11:12:23;24.10;49.30
55313;DHT22;46892;45.668;11.756;2022-09-02T11:15:21;24.00;46.20
55313;DHT22;46892;45.668;11.756;2022-09-02T11:18:01;24.20;48.50
55313;DHT22;46892;45.668;11.756;2022-09-02T11:20:40;24.20;45.60
55313;DHT22;46892;45.668;11.756;2022-09-02T11:29:05;24.70;49.30
55313;DHT22;46892;45.668;11.756;2022-09-02T11:31:54;24.80;46.20
55313;DHT22;46892;45.668;11.756;2022-09-02T11:37:01;25.10;47.50
55313;DHT22;46892;45.668;11.756;2022-09-02T11:39:42;25.20;46.80
55313;DHT22;46892;45.668;11.756;2022-09-02T11:52:58;24.90;47.80
55313;DHT22;46892;45.668;11.756;2022-09-02T11:55:34;24.80;46.30
55313;DHT22;46892;45.668;11.756;2022-09-02T11:58:00;24.90;48.10
55313;DHT22;46892;45.668;11.756;2022-09-02T12:03:16;25.10;45.20
55313;DHT22;46892;45.668;11.756;2022-09-02T12:05:46;25.00;48.90
55313;DHT22;46892;45.668;11.756;2022-09-02T12:11:01;25.20;47.10
55313;DHT22;46892;45.668;11.756;2022-09-02T12:18:45;25.30;46.10
55313;DHT22;46892;45.668;11.756;2022-09-02T12:21:33;25.20;48.70
55313;DHT22;46892;45.668;11.756;2022-09-02T12:24:08;25.20;47.50
55313;DHT22;46892;45.668;11.756;2022-09-02T12:29:11;25.20;47.50
55313;DHT22;46892;45.668;11.756;2022-09-02T12:36:51;25.00;47.40
55313;DHT22;46892;45.668;11.756;2022-09-02T18:44:09;22.40;67.60
55313;DHT22;46892;45.668;11.756;2022-09-02T18:46:55;22.30;68.20
55313;DHT22;46892;45.668;11.756;2022-09-02T18:49:23;22.30;68.80
55313;DHT22;46892;45.668;11.756;2022-09-02T18:51:54;22.10;69.60
55313;DHT22;46892;45.668;11.756;2022-09-02T18:54:33;21.80;66.60
55313;DHT22;46892;45.668;11.756;2022-09-02T18:57:05;21.70;66.30
55313;DHT22;46892;45.668;11.756;2022-09-02T19:02:12;21.80;67.00
55313;DHT22;46892;45.668;11.756;2022-09-02T19:04:39;21.80;67.20
55313;DHT22;46892;45.668;11.756;2022-09-02T19:07:05;21.80;68.20
55313;DHT22;46892;45.668;11.756;2022-09-02T19:09:49;21.80;69.00
55313;DHT22;46892;45.668;11.756;2022-09-02T19:12:15;21.80;68.70
55313;DHT22;46892;45.668;11.756;2022-09-02T19:14:41;21.80;68.00
55313;DHT22;46892;45.668;11.756;2022-09-02T19:17:06;21.80;66.60
55313;DHT22;46892;45.668;11.756;2022-09-02T19:19:34;21.80;66.10
55313;DHT22;46892;45.668;11.756;2022-09-02T19:22:03;21.80;64.50
55313;DHT22;46892;45.668;11.756;2022-09-02T19:24:30;21.80;64.80
55313;DHT22;46892;45.668;11.756;2022-09-02T19:27:19;21.70;65.20
55313;DHT22;46892;45.668;11.756;2022-09-02T19:29:49;21.70;65.20
55313;DHT22;46892;45.668;11.756;2022-09-02T19:32:20;21.70;65.40
55313;DHT22;46892;45.668;11.756;2022-09-02T19:34:47;21.70;65.70
55313;DHT22;46892;45.668;11.756;2022-09-02T19:37:13;21.70;68.10
55313;DHT22;46892;45.668;11.756;2022-09-02T19:39:39;21.60;64.40
55313;DHT22;46892;45.668;11.756;2022-09-02T19:42:04;21.60;67.00
55313;DHT22;46892;45.668;11.756;2022-09-02T19:44:31;21.50;66.50
55313;DHT22;46892;45.668;11.756;2022-09-02T19:46:57;21.50;67.50
55313;DHT22;46892;45.668;11.756;2022-09-02T19:49:22;21.30;66.60
55313;DHT22;46892;45.668;11.756;2022-09-02T19:51:49;21.20;65.20
55313;DHT22;46892;45.668;11.756;2022-09-02T19:54:15;21.20;67.40
55313;DHT22;46892;45.668;11.756;2022-09-02T19:56:44;21.20;67.90
55313;DHT22;46892;45.668;11.756;2022-09-02T19:59:11;21.10;68.20
55313;DHT22;46892;45.668;11.756;2022-09-02T20:01:38;21.00;68.50
55313;DHT22;46892;45.668;11.756;2022-09-02T20:04:04;21.00;67.50
55313;DHT22;46892;45.668;11.756;2022-09-02T20:06:31;21.00;68.60
55313;DHT22;46892;45.668;11.756;2022-09-02T20:08:56;20.90;68.80
55313;DHT22;46892;45.668;11.756;2022-09-02T20:11:22;20.80;67.40
55313;DHT22;46892;45.668;11.756;2022-09-02T20:13:48;20.80;68.80
55313;DHT22;46892;45.668;11.756;2022-09-02T20:16:22;20.70;69.60
55313;DHT22;46892;45.668;11.756;2022-09-02T20:18:49;20.70;66.60
55313;DHT22;46892;45.668;11.756;2022-09-02T20:21:41;20.60;67.00
55313;DHT22;46892;45.668;11.756;2022-09-02T20:24:09;20.70;67.90
55313;DHT22;46892;45.668;11.756;2022-09-02T20:26:59;20.70;70.20
55313;DHT22;46892;45.668;11.756;2022-09-02T20:29:54;20.70;68.10
55313;DHT22;46892;45.668;11.756;2022-09-02T20:32:54;20.70;66.60
55313;DHT22;46892;45.668;11.756;2022-09-02T20:44:38;20.60;70.30
55313;DHT22;46892;45.668;11.756;2022-09-02T20:47:35;20.50;70.80
55313;DHT22;46892;45.668;11.756;2022-09-02T20:55:21;20.40;70.50
55313;DHT22;46892;45.668;11.756;2022-09-02T21:03:19;20.30;71.30
55313;DHT22;46892;45.668;11.756;2022-09-02T21:05:52;20.30;70.20
55313;DHT22;46892;45.668;11.756;2022-09-02T21:08:32;20.30;69.40
55313;DHT22;46892;45.668;11.756;2022-09-02T21:11:00;20.20;69.50
55313;DHT22;46892;45.668;11.756;2022-09-02T21:13:45;20.10;70.80
55313;DHT22;46892;45.668;11.756;2022-09-02T21:16:39;20.00;70.90
55313;DHT22;46892;45.668;11.756;2022-09-02T21:19:32;20.10;70.90
55313;DHT22;46892;45.668;11.756;2022-09-02T21:29:44;20.30;70.40
55313;DHT22;46892;45.668;11.756;2022-09-02T21:34:53;20.50;71.00
55313;DHT22;46892;45.668;11.756;2022-09-02T21:37:20;20.60;71.10
55313;DHT22;46892;45.668;11.756;2022-09-02T21:39:58;20.70;69.80
55313;DHT22;46892;45.668;11.756;2022-09-02T21:45:28;20.30;71.40
55313;DHT22;46892;45.668;11.756;2022-09-02T21:48:07;20.20;71.90
55313;DHT22;46892;45.668;11.756;2022-09-02T21:50:57;20.10;71.80
55313;DHT22;46892;45.668;11.756;2022-09-02T21:59:15;20.00;73.10
55313;DHT22;46892;45.668;11.756;2022-09-02T22:06:47;20.00;73.10
55313;DHT22;46892;45.668;11.756;2022-09-02T22:09:15;20.00;72.70
55313;DHT22;46892;45.668;11.756;2022-09-02T22:14:19;20.10;72.70
55313;DHT22;46892;45.668;11.756;2022-09-02T22:17:08;20.00;72.50
55313;DHT22;46892;45.668;11.756;2022-09-02T22:19:39;20.00;72.40
55313;DHT22;46892;45.668;11.756;2022-09-02T22:22:14;20.00;72.10
55313;DHT22;46892;45.668;11.756;2022-09-02T22:24:41;20.00;71.80
55313;DHT22;46892;45.668;11.756;2022-09-02T22:30:06;20.20;70.40
55313;DHT22;46892;45.668;11.756;2022-09-02T22:32:49;20.20;70.20
55313;DHT22;46892;45.668;11.756;2022-09-02T22:35:53;20.20;70.40
55313;DHT22;46892;45.668;11.756;2022-09-02T22:38:31;20.20;70.20
55313;DHT22;46892;45.668;11.756;2022-09-02T22:41:07;20.10;70.50
55313;DHT22;46892;45.668;11.756;2022-09-02T22:43:41;20.00;70.80
55313;DHT22;46892;45.668;11.756;2022-09-02T22:46:23;20.00;70.90
55313;DHT22;46892;45.668;11.756;2022-09-02T22:49:14;19.80;71.30
55313;DHT22;46892;45.668;11.756;2022-09-02T22:54:57;19.50;72.30
55313;DHT22;46892;45.668;11.756;2022-09-02T23:00:23;19.30;73.00
55313;DHT22;46892;45.668;11.756;2022-09-02T23:03:10;19.30;72.90
55313;DHT22;46892;45.668;11.756;2022-09-02T23:08:16;19.50;73.50
55313;DHT22;46892;45.668;11.756;2022-09-02T23:13:19;19.60;73.10
55313;DHT22;46892;45.668;11.756;2022-09-02T23:15:56;19.60;74.00
55313;DHT22;46892;45.668;11.756;2022-09-02T23:18:34;19.60;74.70
55313;DHT22;46892;45.668;11.756;2022-09-02T23:21:08;19.50;75.20
55313;DHT22;46892;45.668;11.756;2022-09-02T23:23:52;19.60;75.30
55313;DHT22;46892;45.668;11.756;2022-09-02T23:26:34;19.70;73.90
55313;DHT22;46892;45.668;11.756;2022-09-02T23:29:23;19.70;73.10
55313;DHT22;46892;45.668;11.756;2022-09-02T23:38:31;19.60;73.60
55313;DHT22;46892;45.668;11.756;2022-09-02T23:41:08;19.50;74.10
55313;DHT22;46892;45.668;11.756;2022-09-02T23:43:34;19.50;75.20
55313;DHT22;46892;45.668;11.756;2022-09-02T23:49:17;19.50;74.90
55313;DHT22;46892;45.668;11.756;2022-09-02T23:52:07;19.70;74.60
